createdAt,value
2023-03-10T00:08:31.839Z,3054.13154
2023-03-10T00:23:35.722Z,3068.11726
2023-03-10T00:38:39.252Z,3080.46025
2023-03-10T00:53:41.096Z,3134.50341
2023-03-10T01:08:42.966Z,3121.72442
2023-03-10T01:23:44.816Z,3134.50341
2023-03-10T01:38:46.650Z,3182.89835
2023-03-10T01:53:48.435Z,3001.1203
2023-03-10T02:08:50.279Z,2984.41033
2023-03-10T02:24:01.091Z,3028.24907
2023-03-10T02:39:03.632Z,2935.37841
2023-03-10T02:54:05.634Z,2863.24839
2023-03-10T03:09:07.590Z,2731.90674
2023-03-10T03:24:09.575Z,2690.76357
2023-03-10T03:39:11.667Z,2701.61342
2023-03-10T03:54:13.619Z,2720.81271
2023-03-10T04:09:15.491Z,2632.61349
2023-03-10T04:24:17.511Z,2547.52903
2023-03-10T04:39:19.409Z,2418.77307
2023-03-10T04:54:21.334Z,1556.33034
2023-03-10T05:09:23.262Z,1341.34185
2023-03-10T05:24:25.199Z,1427.05057
2023-03-10T05:39:27.087Z,1495.53623
2023-03-10T05:54:29.010Z,1349.44663
2023-03-10T06:09:31.016Z,1503.08518
2023-03-10T06:24:32.940Z,1568.16901
2023-03-10T06:39:34.844Z,1502.24267
2023-03-10T06:54:36.754Z,1591.44942
2023-03-10T07:09:38.658Z,1712.46056
2023-03-10T07:24:40.606Z,1795.04403
2023-03-10T07:39:42.583Z,1857.24235
2023-03-10T07:54:44.501Z,1961.93315
2023-03-10T08:09:46.498Z,2016.5543
2023-03-10T08:24:48.398Z,2027.23197
2023-03-10T08:39:50.329Z,2116.90414
2023-03-10T08:54:52.300Z,2180.63517
2023-03-10T09:09:54.206Z,2222.22273
2023-03-10T09:24:57.634Z,2326.3894
2023-03-10T09:40:00.762Z,2308.35537
2023-03-10T09:55:02.627Z,2352.94169
2023-03-10T10:10:04.492Z,2420.95805
2023-03-10T10:25:08.019Z,2445.25599
2023-03-10T10:40:10.173Z,2523.541
2023-03-10T10:55:12.075Z,2567.05033
2023-03-10T11:10:14.037Z,1834.36052
2023-03-10T11:25:15.995Z,1664.59677
2023-03-10T11:40:17.969Z,1703.75129
2023-03-10T11:55:19.888Z,1724.58222
2023-03-10T12:10:22.022Z,1871.50888
2023-03-10T12:25:23.971Z,1954.77803
2023-03-10T12:40:25.877Z,2041.12769
2023-03-10T12:55:27.781Z,2110.23672
2023-03-10T13:10:29.893Z,2213.04757
2023-03-10T13:25:31.997Z,2302.40601
2023-03-10T13:40:33.933Z,2384.34215
2023-03-10T13:55:35.882Z,2454.21297
2023-03-10T14:10:37.806Z,2497.6706
2023-03-10T14:25:39.709Z,2564.59382
2023-03-10T14:40:41.635Z,2601.94227
2023-03-10T14:55:43.586Z,2680.00052
2023-03-10T15:10:45.543Z,2745.90216
2023-03-10T15:25:47.533Z,2791.66719
2023-03-10T15:40:49.479Z,2815.12658
2023-03-10T15:55:51.345Z,2050.49782
2023-03-10T16:10:53.403Z,2058.37224
2023-03-10T16:25:55.379Z,2152.61095
2023-03-10T16:40:57.280Z,2203.94787
2023-03-10T16:55:59.227Z,2275.04295
2023-03-10T17:11:01.166Z,2344.70742
2023-03-10T17:26:03.100Z,2363.31621
2023-03-10T17:41:05.094Z,2467.77215
2023-03-10T17:56:07.070Z,2458.71611
2023-03-10T18:11:08.979Z,2458.71611
2023-03-10T18:26:10.946Z,2392.85765
2023-03-10T18:41:12.864Z,2434.15128
2023-03-10T18:56:14.844Z,2493.02377
2023-03-10T19:11:16.770Z,2438.58104
2023-03-10T19:26:18.749Z,2410.07245
2023-03-10T19:41:20.653Z,2436.36415
2023-03-10T19:56:22.769Z,2460.97388
2023-03-10T20:11:24.738Z,2488.3942
2023-03-10T20:26:26.615Z,2518.79751
2023-03-10T20:41:28.510Z,2567.05033
2023-03-10T20:56:31.551Z,2567.05033
2023-03-10T21:11:33.621Z,2591.87673
2023-03-10T21:26:35.578Z,2648.22186
2023-03-10T21:41:37.789Z,2669.32323
2023-03-10T21:56:39.701Z,2734.6944
2023-03-10T22:11:41.757Z,2685.37126
2023-03-10T22:26:43.701Z,2661.37093
2023-03-10T22:41:45.682Z,2729.12476
2023-03-10T22:56:47.650Z,2720.81271
2023-03-10T23:11:49.604Z,2731.90674
2023-03-10T23:26:51.524Z,2771.45864
2023-03-10T23:41:53.430Z,2701.61342
2023-03-10T23:56:55.361Z,2627.4515
